sensor_id;sensor_type;location;lat;lon;timestamp;pressure;altitude;pressure_sealevel;temperature;humidity
20023;BME280;10172;42.054;24.546;2023-01-28T00:01:47;97471.75;;;2.89;100.00
20023;BME280;10172;42.054;24.546;2023-01-28T00:04:13;97457.97;;;2.84;100.00
20023;BME280;10172;42.054;24.546;2023-01-28T00:06:39;97468.66;;;2.98;100.00
20023;BME280;10172;42.054;24.546;2023-01-28T00:09:05;97469.03;;;2.90;100.00
20023;BME280;10172;42.054;24.546;2023-01-28T00:11:30;97469.03;;;2.90;100.00
20023;BME280;10172;42.054;24.546;2023-01-28T00:13:56;97478.06;;;2.85;100.00
20023;BME280;10172;42.054;24.546;2023-01-28T00:16:22;97460.28;;;2.90;100.00
20023;BME280;10172;42.054;24.546;2023-01-28T00:18:47;97417.03;;;2.63;100.00
20023;BME280;10172;42.054;24.546;2023-01-28T00:21:14;97487.44;;;3.08;100.00
20023;BME280;10172;42.054;24.546;2023-01-28T00:23:42;97487.88;;;2.98;100.00
20023;BME280;10172;42.054;24.546;2023-01-28T00:26:13;97486.56;;;3.07;100.00
20023;BME280;10172;42.054;24.546;2023-01-28T00:28:39;97447.16;;;2.90;100.00
20023;BME280;10172;42.054;24.546;2023-01-28T00:31:23;97468.00;;;3.27;100.00
20023;BME280;10172;42.054;24.546;2023-01-28T00:33:50;97486.13;;;2.99;100.00
20023;BME280;10172;42.054;24.546;2023-01-28T00:36:16;97493.06;;;3.17;100.00
20023;BME280;10172;42.054;24.546;2023-01-28T00:38:42;97496.41;;;2.86;100.00
20023;BME280;10172;42.054;24.546;2023-01-28T00:41:12;97503.34;;;3.05;100.00
20023;BME280;10172;42.054;24.546;2023-01-28T00:43:39;97441.13;;;2.71;100.00
20023;BME280;10172;42.054;24.546;2023-01-28T00:46:06;97499.25;;;2.99;100.00
20023;BME280;10172;42.054;24.546;2023-01-28T00:48:36;97509.59;;;3.19;100.00
20023;BME280;10172;42.054;24.546;2023-01-28T00:51:03;97500.09;;;3.34;100.00
20023;BME280;10172;42.054;24.546;2023-01-28T00:53:30;97518.25;;;3.04;100.00
20023;BME280;10172;42.054;24.546;2023-01-28T00:55:55;97504.66;;;3.13;100.00
20023;BME280;10172;42.054;24.546;2023-01-28T00:58:21;97459.38;;;2.91;100.00
20023;BME280;10172;42.054;24.546;2023-01-28T01:00:49;97508.22;;;3.12;100.00
20023;BME280;10172;42.054;24.546;2023-01-28T01:03:15;97511.41;;;3.19;100.00
20023;BME280;10172;42.054;24.546;2023-01-28T01:05:41;97492.69;;;3.08;100.00
20023;BME280;10172;42.054;24.546;2023-01-28T01:08:06;97520.19;;;3.18;100.00
20023;BME280;10172;42.054;24.546;2023-01-28T01:10:32;97493.91;;;3.18;100.00
20023;BME280;10172;42.054;24.546;2023-01-28T01:12:58;97511.06;;;3.25;100.00
20023;BME280;10172;42.054;24.546;2023-01-28T01:15:24;97520.56;;;3.27;100.00
20023;BME280;10172;42.054;24.546;2023-01-28T01:17:49;97500.47;;;3.09;100.00
20023;BME280;10172;42.054;24.546;2023-01-28T01:20:22;97535.44;;;3.28;100.00
20023;BME280;10172;42.054;24.546;2023-01-28T01:22:48;97516.78;;;3.33;100.00
20023;BME280;10172;42.054;24.546;2023-01-28T01:25:15;97513.94;;;3.20;100.00
20023;BME280;10172;42.054;24.546;2023-01-28T01:27:41;97512.94;;;3.23;100.00
20023;BME280;10172;42.054;24.546;2023-01-28T01:30:08;97539.44;;;3.35;100.00
20023;BME280;10172;42.054;24.546;2023-01-28T01:32:34;97532.78;;;3.28;100.00
20023;BME280;10172;42.054;24.546;2023-01-28T01:35:01;97471.97;;;3.01;100.00
20023;BME280;10172;42.054;24.546;2023-01-28T01:37:27;97492.00;;;3.21;100.00
20023;BME280;10172;42.054;24.546;2023-01-28T01:39:53;97520.56;;;3.61;100.00
20023;BME280;10172;42.054;24.546;2023-01-28T01:42:19;97529.06;;;3.67;100.00
20023;BME280;10172;42.054;24.546;2023-01-28T01:44:55;97493.47;;;3.27;100.00
20023;BME280;10172;42.054;24.546;2023-01-28T01:50:06;97533.72;;;3.44;100.00
20023;BME280;10172;42.054;24.546;2023-01-28T01:52:34;97536.44;;;3.26;100.00
20023;BME280;10172;42.054;24.546;2023-01-28T01:55:03;97520.19;;;3.18;100.00
20023;BME280;10172;42.054;24.546;2023-01-28T01:57:32;97544.53;;;3.38;100.00
20023;BME280;10172;42.054;24.546;2023-01-28T02:00:00;97488.91;;;3.13;100.00
20023;BME280;10172;42.054;24.546;2023-01-28T02:02:37;97546.72;;;3.30;100.00
20023;BME280;10172;42.054;24.546;2023-01-28T02:05:06;97553.59;;;3.33;100.00
20023;BME280;10172;42.054;24.546;2023-01-28T02:07:32;97480.84;;;2.82;100.00
20023;BME280;10172;42.054;24.546;2023-01-28T02:09:58;97551.06;;;3.48;100.00
20023;BME280;10172;42.054;24.546;2023-01-28T02:12:28;97552.06;;;3.46;100.00
20023;BME280;10172;42.054;24.546;2023-01-28T02:15:05;97556.91;;;3.36;100.00
20023;BME280;10172;42.054;24.546;2023-01-28T02:17:31;97549.50;;;3.44;100.00
20023;BME280;10172;42.054;24.546;2023-01-28T02:20:05;97559.31;;;3.41;100.00
20023;BME280;10172;42.054;24.546;2023-01-28T02:22:39;97526.31;;;3.18;100.00
20023;BME280;10172;42.054;24.546;2023-01-28T02:25:40;97567.44;;;3.36;100.00
20023;BME280;10172;42.054;24.546;2023-01-28T02:33:28;97560.94;;;3.26;100.00
20023;BME280;10172;42.054;24.546;2023-01-28T02:35:55;97567.06;;;3.27;100.00
20023;BME280;10172;42.054;24.546;2023-01-28T02:38:28;97571.16;;;3.32;100.00
20023;BME280;10172;42.054;24.546;2023-01-28T02:41:03;97560.16;;;3.41;100.00
20023;BME280;10172;42.054;24.546;2023-01-28T02:43:45;97580.72;;;3.33;100.00
20023;BME280;10172;42.054;24.546;2023-01-28T02:57:55;97580.09;;;3.62;100.00
20023;BME280;10172;42.054;24.546;2023-01-28T03:00:55;97562.19;;;3.36;100.00
20023;BME280;10172;42.054;24.546;2023-01-28T03:05:58;97574.56;;;3.34;100.00
20023;BME280;10172;42.054;24.546;2023-01-28T03:08:53;97580.44;;;3.39;100.00
20023;BME280;10172;42.054;24.546;2023-01-28T03:11:41;97572.00;;;3.50;100.00
20023;BME280;10172;42.054;24.546;2023-01-28T03:14:27;97514.38;;;3.11;100.00
20023;BME280;10172;42.054;24.546;2023-01-28T03:17:17;97579.63;;;3.89;100.00
20023;BME280;10172;42.054;24.546;2023-01-28T03:20:04;97515.66;;;3.21;100.00
20023;BME280;10172;42.054;24.546;2023-01-28T03:22:50;97579.09;;;3.65;100.00
20023;BME280;10172;42.054;24.546;2023-01-28T03:25:39;97528.00;;;3.19;100.00
20023;BME280;10172;42.054;24.546;2023-01-28T03:28:27;97586.38;;;3.60;100.00
20023;BME280;10172;42.054;24.546;2023-01-28T03:31:14;97584.31;;;3.32;100.00
20023;BME280;10172;42.054;24.546;2023-01-28T03:33:59;97592.88;;;3.53;100.00
20023;BME280;10172;42.054;24.546;2023-01-28T03:36:46;97586.75;;;3.35;100.00
20023;BME280;10172;42.054;24.546;2023-01-28T03:39:16;97579.09;;;3.31;100.00
20023;BME280;10172;42.054;24.546;2023-01-28T03:41:53;97585.38;;;3.45;100.00
20023;BME280;10172;42.054;24.546;2023-01-28T03:44:19;97585.97;;;3.33;100.00
20023;BME280;10172;42.054;24.546;2023-01-28T03:47:03;97564.28;;;3.30;100.00
20023;BME280;10172;42.054;24.546;2023-01-28T03:49:31;97582.81;;;3.27;100.00
20023;BME280;10172;42.054;24.546;2023-01-28T03:51:57;97585.22;;;3.31;100.00
20023;BME280;10172;42.054;24.546;2023-01-28T03:54:22;97597.38;;;3.51;100.00
20023;BME280;10172;42.054;24.546;2023-01-28T03:56:47;97592.03;;;3.52;100.00
20023;BME280;10172;42.054;24.546;2023-01-28T03:59:13;97587.94;;;3.30;100.00
20023;BME280;10172;42.054;24.546;2023-01-28T04:01:39;97611.13;;;3.39;100.00
20023;BME280;10172;42.054;24.546;2023-01-28T04:04:04;97579.81;;;3.34;100.00
20023;BME280;10172;42.054;24.546;2023-01-28T04:06:30;97599.63;;;3.76;100.00
20023;BME280;10172;42.054;24.546;2023-01-28T04:08:56;97596.19;;;3.39;100.00
20023;BME280;10172;42.054;24.546;2023-01-28T04:11:24;97591.56;;;3.44;100.00
20023;BME280;10172;42.054;24.546;2023-01-28T04:13:51;97604.94;;;3.74;100.00
20023;BME280;10172;42.054;24.546;2023-01-28T04:16:17;97608.19;;;3.79;100.00
20023;BME280;10172;42.054;24.546;2023-01-28T04:18:43;97566.66;;;3.17;100.00
20023;BME280;10172;42.054;24.546;2023-01-28T04:21:09;97538.78;;;2.79;100.00
20023;BME280;10172;42.054;24.546;2023-01-28T04:23:35;97598.03;;;3.20;100.00
20023;BME280;10172;42.054;24.546;2023-01-28T04:26:00;97586.34;;;3.09;100.00
20023;BME280;10172;42.054;24.546;2023-01-28T04:28:26;97584.13;;;3.18;100.00
20023;BME280;10172;42.054;24.546;2023-01-28T04:30:51;97607.00;;;3.16;100.00
20023;BME280;10172;42.054;24.546;2023-01-28T04:33:17;97572.06;;;3.14;100.00
20023;BME280;10172;42.054;24.546;2023-01-28T04:35:43;97593.28;;;3.45;100.00
20023;BME280;10172;42.054;24.546;2023-01-28T04:38:09;97563.53;;;3.78;100.00
20023;BME280;10172;42.054;24.546;2023-01-28T04:40:34;97612.00;;;3.56;100.00
20023;BME280;10172;42.054;24.546;2023-01-28T04:43:00;97550.97;;;3.16;100.00
20023;BME280;10172;42.054;24.546;2023-01-28T04:45:25;97618.16;;;3.38;100.00
20023;BME280;10172;42.054;24.546;2023-01-28T04:47:51;97612.75;;;3.24;100.00
20023;BME280;10172;42.054;24.546;2023-01-28T04:50:17;97622.59;;;3.19;100.00
20023;BME280;10172;42.054;24.546;2023-01-28T04:52:42;97632.06;;;3.23;100.00
20023;BME280;10172;42.054;24.546;2023-01-28T04:55:09;97630.81;;;3.13;100.00
20023;BME280;10172;42.054;24.546;2023-01-28T04:57:34;97625.31;;;3.18;100.00
20023;BME280;10172;42.054;24.546;2023-01-28T05:00:00;97619.06;;;3.20;100.00
20023;BME280;10172;42.054;24.546;2023-01-28T05:02:25;97629.88;;;3.14;100.00
20023;BME280;10172;42.054;24.546;2023-01-28T05:04:51;97644.50;;;3.20;100.00
20023;BME280;10172;42.054;24.546;2023-01-28T05:07:16;97628.19;;;3.13;100.00
20023;BME280;10172;42.054;24.546;2023-01-28T05:09:42;97651.59;;;3.18;100.00
20023;BME280;10172;42.054;24.546;2023-01-28T05:12:07;97648.13;;;3.17;100.00
20023;BME280;10172;42.054;24.546;2023-01-28T05:14:33;97657.47;;;3.58;100.00
20023;BME280;10172;42.054;24.546;2023-01-28T05:16:58;97640.22;;;3.17;100.00
20023;BME280;10172;42.054;24.546;2023-01-28T05:19:24;97606.06;;;3.00;100.00
20023;BME280;10172;42.054;24.546;2023-01-28T05:21:49;97646.59;;;3.30;100.00
20023;BME280;10172;42.054;24.546;2023-01-28T05:24:14;97660.81;;;3.26;100.00
20023;BME280;10172;42.054;24.546;2023-01-28T05:26:41;97672.44;;;3.39;100.00
20023;BME280;10172;42.054;24.546;2023-01-28T05:29:06;97654.19;;;3.36;100.00
20023;BME280;10172;42.054;24.546;2023-01-28T05:31:32;97625.31;;;3.18;100.00
20023;BME280;10172;42.054;24.546;2023-01-28T05:33:58;97671.53;;;3.40;100.00
20023;BME280;10172;42.054;24.546;2023-01-28T05:36:23;97672.59;;;3.36;100.00
20023;BME280;10172;42.054;24.546;2023-01-28T05:38:49;97654.72;;;3.26;100.00
20023;BME280;10172;42.054;24.546;2023-01-28T05:41:15;97683.72;;;3.41;100.00
20023;BME280;10172;42.054;24.546;2023-01-28T05:43:40;97682.63;;;3.28;100.00
20023;BME280;10172;42.054;24.546;2023-01-28T05:46:06;97681.84;;;3.26;100.00
20023;BME280;10172;42.054;24.546;2023-01-28T05:48:31;97664.50;;;3.22;100.00
20023;BME280;10172;42.054;24.546;2023-01-28T05:50:57;97682.28;;;3.17;100.00
20023;BME280;10172;42.054;24.546;2023-01-28T05:53:22;97669.28;;;3.14;100.00
20023;BME280;10172;42.054;24.546;2023-01-28T05:55:52;97685.91;;;3.50;100.00
20023;BME280;10172;42.054;24.546;2023-01-28T05:58:18;97629.91;;;3.31;100.00
20023;BME280;10172;42.054;24.546;2023-01-28T06:00:44;97698.31;;;3.48;100.00
20023;BME280;10172;42.054;24.546;2023-01-28T06:03:10;97701.09;;;3.62;100.00
20023;BME280;10172;42.054;24.546;2023-01-28T06:05:36;97704.47;;;3.47;100.00
20023;BME280;10172;42.054;24.546;2023-01-28T06:08:02;97651.38;;;3.22;100.00
20023;BME280;10172;42.054;24.546;2023-01-28T06:10:28;97720.50;;;3.24;100.00
20023;BME280;10172;42.054;24.546;2023-01-28T06:12:54;97696.06;;;3.22;100.00
20023;BME280;10172;42.054;24.546;2023-01-28T06:15:20;97662.44;;;2.93;100.00
20023;BME280;10172;42.054;24.546;2023-01-28T06:17:46;97657.84;;;3.15;100.00
20023;BME280;10172;42.054;24.546;2023-01-28T06:20:11;97718.06;;;3.38;100.00
20023;BME280;10172;42.054;24.546;2023-01-28T06:22:37;97738.16;;;3.39;100.00
20023;BME280;10172;42.054;24.546;2023-01-28T06:25:02;97742.06;;;3.49;100.00
20023;BME280;10172;42.054;24.546;2023-01-28T06:27:28;97733.28;;;3.32;100.00
20023;BME280;10172;42.054;24.546;2023-01-28T06:29:53;97745.19;;;3.39;100.00
20023;BME280;10172;42.054;24.546;2023-01-28T06:32:19;97676.50;;;2.92;100.00
20023;BME280;10172;42.054;24.546;2023-01-28T06:34:45;97726.53;;;3.26;100.00
20023;BME280;10172;42.054;24.546;2023-01-28T06:37:14;97740.66;;;3.42;100.00
20023;BME280;10172;42.054;24.546;2023-01-28T06:39:39;97743.53;;;3.38;100.00
20023;BME280;10172;42.054;24.546;2023-01-28T06:42:05;97750.88;;;3.48;100.00
20023;BME280;10172;42.054;24.546;2023-01-28T06:44:30;97747.13;;;3.54;100.00
20023;BME280;10172;42.054;24.546;2023-01-28T06:46:56;97675.50;;;2.94;100.00
20023;BME280;10172;42.054;24.546;2023-01-28T06:49:21;97756.44;;;3.42;100.00
20023;BME280;10172;42.054;24.546;2023-01-28T06:51:47;97764.81;;;3.50;100.00
20023;BME280;10172;42.054;24.546;2023-01-28T06:54:13;97758.56;;;3.34;100.00
20023;BME280;10172;42.054;24.546;2023-01-28T06:56:38;97771.47;;;3.57;100.00
20023;BME280;10172;42.054;24.546;2023-01-28T06:59:04;97780.97;;;3.60;100.00
20023;BME280;10172;42.054;24.546;2023-01-28T07:01:30;97793.38;;;3.58;100.00
20023;BME280;10172;42.054;24.546;2023-01-28T07:03:56;97787.09;;;3.60;100.00
20023;BME280;10172;42.054;24.546;2023-01-28T07:06:21;97790.84;;;3.74;100.00
20023;BME280;10172;42.054;24.546;2023-01-28T07:08:47;97773.94;;;3.60;100.00
20023;BME280;10172;42.054;24.546;2023-01-28T07:11:13;97779.09;;;3.45;100.00
20023;BME280;10172;42.054;24.546;2023-01-28T07:13:39;97804.03;;;3.55;100.00
20023;BME280;10172;42.054;24.546;2023-01-28T07:16:05;97800.69;;;3.51;100.00
20023;BME280;10172;42.054;24.546;2023-01-28T07:18:30;97795.09;;;3.59;100.00
20023;BME280;10172;42.054;24.546;2023-01-28T07:20:56;97787.09;;;3.60;100.00
20023;BME280;10172;42.054;24.546;2023-01-28T07:23:21;97805.22;;;3.67;100.00
20023;BME280;10172;42.054;24.546;2023-01-28T07:25:47;97811.53;;;3.62;100.00
20023;BME280;10172;42.054;24.546;2023-01-28T07:28:12;97816.66;;;3.66;100.00
20023;BME280;10172;42.054;24.546;2023-01-28T07:30:38;97813.41;;;3.60;100.00
20023;BME280;10172;42.054;24.546;2023-01-28T07:33:03;97809.84;;;3.61;100.00
20023;BME280;10172;42.054;24.546;2023-01-28T07:35:30;97811.97;;;3.72;100.00
20023;BME280;10172;42.054;24.546;2023-01-28T07:37:58;97821.00;;;3.67;100.00
20023;BME280;10172;42.054;24.546;2023-01-28T07:40:25;97818.88;;;3.75;100.00
20023;BME280;10172;42.054;24.546;2023-01-28T07:42:51;97819.63;;;3.77;100.00
20023;BME280;10172;42.054;24.546;2023-01-28T07:45:18;97820.41;;;3.79;100.00
20023;BME280;10172;42.054;24.546;2023-01-28T07:47:43;97824.00;;;3.78;100.00
20023;BME280;10172;42.054;24.546;2023-01-28T07:50:10;97835.06;;;3.84;100.00
20023;BME280;10172;42.054;24.546;2023-01-28T07:52:36;97821.50;;;3.75;100.00
20023;BME280;10172;42.054;24.546;2023-01-28T07:55:10;97836.38;;;3.93;100.00
20023;BME280;10172;42.054;24.546;2023-01-28T07:57:36;97824.09;;;3.93;100.00
20023;BME280;10172;42.054;24.546;2023-01-28T08:00:02;97759.13;;;3.59;100.00
20023;BME280;10172;42.054;24.546;2023-01-28T08:02:28;97841.66;;;3.93;100.00
20023;BME280;10172;42.054;24.546;2023-01-28T08:04:54;97845.22;;;3.92;100.00
20023;BME280;10172;42.054;24.546;2023-01-28T08:07:23;97844.91;;;3.98;100.00
20023;BME280;10172;42.054;24.546;2023-01-28T08:09:50;97848.13;;;4.04;100.00
20023;BME280;10172;42.054;24.546;2023-01-28T08:12:15;97833.88;;;3.73;100.00
20023;BME280;10172;42.054;24.546;2023-01-28T08:14:41;97852.19;;;3.93;100.00
20023;BME280;10172;42.054;24.546;2023-01-28T08:17:06;97833.28;;;3.85;100.00
20023;BME280;10172;42.054;24.546;2023-01-28T08:19:32;97850.84;;;4.20;100.00
20023;BME280;10172;42.054;24.546;2023-01-28T08:21:58;97801.47;;;3.72;100.00
20023;BME280;10172;42.054;24.546;2023-01-28T08:24:23;97849.94;;;4.21;100.00
20023;BME280;10172;42.054;24.546;2023-01-28T08:26:49;97799.44;;;3.77;100.00
20023;BME280;10172;42.054;24.546;2023-01-28T08:29:15;97856.88;;;4.05;100.00
20023;BME280;10172;42.054;24.546;2023-01-28T08:31:40;97812.09;;;3.88;100.00
20023;BME280;10172;42.054;24.546;2023-01-28T08:34:06;97795.06;;;3.78;100.00
20023;BME280;10172;42.054;24.546;2023-01-28T08:36:32;97833.41;;;3.82;100.00
20023;BME280;10172;42.054;24.546;2023-01-28T08:38:58;97865.47;;;3.90;100.00
20023;BME280;10172;42.054;24.546;2023-01-28T08:41:24;97881.44;;;4.22;100.00
20023;BME280;10172;42.054;24.546;2023-01-28T08:43:49;97883.88;;;4.08;100.00
20023;BME280;10172;42.054;24.546;2023-01-28T08:46:15;97848.97;;;4.22;100.00
20023;BME280;10172;42.054;24.546;2023-01-28T08:48:41;97804.47;;;3.65;100.00
20023;BME280;10172;42.054;24.546;2023-01-28T08:51:07;97867.41;;;4.05;100.00
20023;BME280;10172;42.054;24.546;2023-01-28T08:53:33;97858.34;;;4.28;100.00
20023;BME280;10172;42.054;24.546;2023-01-28T08:55:58;97875.88;;;4.29;100.00
20023;BME280;10172;42.054;24.546;2023-01-28T08:58:24;97880.00;;;4.34;100.00
20023;BME280;10172;42.054;24.546;2023-01-28T09:00:50;97875.19;;;4.42;100.00
20023;BME280;10172;42.054;24.546;2023-01-28T09:03:16;97892.53;;;4.29;100.00
20023;BME280;10172;42.054;24.546;2023-01-28T09:05:42;97898.22;;;4.20;100.00
20023;BME280;10172;42.054;24.546;2023-01-28T09:08:10;97912.00;;;4.08;100.00
20023;BME280;10172;42.054;24.546;2023-01-28T09:10:37;97888.47;;;4.22;100.00
20023;BME280;10172;42.054;24.546;2023-01-28T09:13:10;97892.47;;;4.48;100.00
20023;BME280;10172;42.054;24.546;2023-01-28T09:15:36;97897.19;;;4.41;100.00
20023;BME280;10172;42.054;24.546;2023-01-28T09:18:03;97844.81;;;3.82;100.00
20023;BME280;10172;42.054;24.546;2023-01-28T09:20:29;97891.84;;;4.07;100.00
20023;BME280;10172;42.054;24.546;2023-01-28T09:22:57;97887.69;;;4.20;100.00
20023;BME280;10172;42.054;24.546;2023-01-28T09:25:23;97888.50;;;4.39;100.00
20023;BME280;10172;42.054;24.546;2023-01-28T09:27:49;97836.63;;;4.24;100.00
20023;BME280;10172;42.054;24.546;2023-01-28T09:30:14;97896.13;;;4.45;100.00
20023;BME280;10172;42.054;24.546;2023-01-28T09:32:40;97883.88;;;4.61;100.00
20023;BME280;10172;42.054;24.546;2023-01-28T09:35:06;97836.28;;;4.13;100.00
20023;BME280;10172;42.054;24.546;2023-01-28T09:37:31;97870.22;;;4.36;100.00
20023;BME280;10172;42.054;24.546;2023-01-28T09:39:57;97872.84;;;4.36;100.00
20023;BME280;10172;42.054;24.546;2023-01-28T09:50:02;97902.28;;;4.27;100.00
20023;BME280;10172;42.054;24.546;2023-01-28T09:52:33;97892.25;;;4.35;100.00
20023;BME280;10172;42.054;24.546;2023-01-28T09:57:50;97906.13;;;4.56;100.00
20023;BME280;10172;42.054;24.546;2023-01-28T10:00:21;97871.81;;;4.04;99.53
20023;BME280;10172;42.054;24.546;2023-01-28T10:03:21;97902.28;;;4.27;100.00
20023;BME280;10172;42.054;24.546;2023-01-28T10:08:43;97903.53;;;4.37;100.00
20023;BME280;10172;42.054;24.546;2023-01-28T10:11:22;97902.16;;;4.47;100.00
20023;BME280;10172;42.054;24.546;2023-01-28T10:14:15;97898.91;;;4.76;100.00
20023;BME280;10172;42.054;24.546;2023-01-28T10:19:45;97885.09;;;4.37;100.00
20023;BME280;10172;42.054;24.546;2023-01-28T10:22:29;97889.88;;;4.65;100.00
20023;BME280;10172;42.054;24.546;2023-01-28T10:24:58;97895.34;;;4.43;100.00
20023;BME280;10172;42.054;24.546;2023-01-28T10:27:31;97902.88;;;4.51;100.00
20023;BME280;10172;42.054;24.546;2023-01-28T10:29:59;97899.22;;;4.53;100.00
20023;BME280;10172;42.054;24.546;2023-01-28T10:32:32;97895.50;;;4.40;100.00
20023;BME280;10172;42.054;24.546;2023-01-28T10:35:01;97892.19;;;4.54;100.00
20023;BME280;10172;42.054;24.546;2023-01-28T10:37:30;97892.38;;;4.32;100.00
20023;BME280;10172;42.054;24.546;2023-01-28T10:39:59;97879.69;;;4.40;100.00
20023;BME280;10172;42.054;24.546;2023-01-28T10:45:04;97894.91;;;4.69;100.00
20023;BME280;10172;42.054;24.546;2023-01-28T10:47:43;97896.22;;;4.78;100.00
20023;BME280;10172;42.054;24.546;2023-01-28T10:50:21;97889.06;;;4.63;100.00
20023;BME280;10172;42.054;24.546;2023-01-28T10:52:55;97845.72;;;4.00;100.00
20023;BME280;10172;42.054;24.546;2023-01-28T10:55:21;97887.13;;;4.32;100.00
20023;BME280;10172;42.054;24.546;2023-01-28T10:57:48;97874.09;;;4.29;100.00
20023;BME280;10172;42.054;24.546;2023-01-28T11:00:25;97894.97;;;4.51;100.00
20023;BME280;10172;42.054;24.546;2023-01-28T11:02:52;97898.09;;;4.23;100.00
20023;BME280;10172;42.054;24.546;2023-01-28T11:05:50;97894.16;;;4.49;100.00
20023;BME280;10172;42.054;24.546;2023-01-28T11:08:18;97878.97;;;4.37;100.00
20023;BME280;10172;42.054;24.546;2023-01-28T11:10:45;97890.84;;;4.45;100.00
20023;BME280;10172;42.054;24.546;2023-01-28T11:13:22;97896.69;;;4.16;100.00
20023;BME280;10172;42.054;24.546;2023-01-28T11:15:48;97894.41;;;4.27;100.00
20023;BME280;10172;42.054;24.546;2023-01-28T11:18:24;97897.31;;;4.21;100.00
20023;BME280;10172;42.054;24.546;2023-01-28T11:21:00;97875.09;;;4.44;100.00
20023;BME280;10172;42.054;24.546;2023-01-28T11:23:29;97879.69;;;4.40;100.00
20023;BME280;10172;42.054;24.546;2023-01-28T11:25:59;97880.03;;;4.51;100.00
20023;BME280;10172;42.054;24.546;2023-01-28T11:28:26;97835.22;;;4.34;100.00
20023;BME280;10172;42.054;24.546;2023-01-28T11:30:53;97881.72;;;4.16;100.00
20023;BME280;10172;42.054;24.546;2023-01-28T11:36:17;97880.72;;;4.19;100.00
20023;BME280;10172;42.054;24.546;2023-01-28T11:38:47;97872.19;;;4.14;100.00
20023;BME280;10172;42.054;24.546;2023-01-28T11:41:14;97873.69;;;4.19;100.00
20023;BME280;10172;42.054;24.546;2023-01-28T11:43:41;97875.97;;;4.08;100.00
20023;BME280;10172;42.054;24.546;2023-01-28T12:03:05;97891.03;;;4.23;100.00
20023;BME280;10172;42.054;24.546;2023-01-28T12:05:50;97889.13;;;4.27;100.00
20023;BME280;10172;42.054;24.546;2023-01-28T12:08:25;97890.56;;;4.15;100.00
20023;BME280;10172;42.054;24.546;2023-01-28T12:13:58;97877.47;;;4.14;100.00
20023;BME280;10172;42.054;24.546;2023-01-28T12:19:05;97899.31;;;4.16;100.00
20023;BME280;10172;42.054;24.546;2023-01-28T12:29:34;97831.84;;;3.96;100.00
20023;BME280;10172;42.054;24.546;2023-01-28T12:42:38;97914.44;;;4.11;100.00
20023;BME280;10172;42.054;24.546;2023-01-28T12:45:20;97917.56;;;4.38;100.00
20023;BME280;10172;42.054;24.546;2023-01-28T12:48:01;97909.81;;;4.35;100.00
20023;BME280;10172;42.054;24.546;2023-01-28T12:50:58;97920.22;;;4.19;100.00
20023;BME280;10172;42.054;24.546;2023-01-28T12:56:15;97862.88;;;3.71;100.00
20023;BME280;10172;42.054;24.546;2023-01-28T12:58:49;97931.97;;;4.12;100.00
20023;BME280;10172;42.054;24.546;2023-01-28T13:06:55;97930.44;;;4.08;100.00
20023;BME280;10172;42.054;24.546;2023-01-28T13:09:24;97890.22;;;4.04;100.00
20023;BME280;10172;42.054;24.546;2023-01-28T13:11:53;97917.94;;;4.11;100.00
20023;BME280;10172;42.054;24.546;2023-01-28T13:14:26;97944.72;;;4.38;100.00
20023;BME280;10172;42.054;24.546;2023-01-28T13:16:53;97937.09;;;4.51;100.00
20023;BME280;10172;42.054;24.546;2023-01-28T13:21:45;97935.66;;;4.27;100.00
20023;BME280;10172;42.054;24.546;2023-01-28T13:29:18;97944.47;;;4.26;100.00
20023;BME280;10172;42.054;24.546;2023-01-28T13:31:46;97957.16;;;4.17;100.00
20023;BME280;10172;42.054;24.546;2023-01-28T13:37:00;97901.28;;;3.94;100.00
20023;BME280;10172;42.054;24.546;2023-01-28T13:39:28;97919.47;;;3.98;100.00
20023;BME280;10172;42.054;24.546;2023-01-28T13:42:07;97962.31;;;4.19;100.00
20023;BME280;10172;42.054;24.546;2023-01-28T13:44:35;97853.28;;;3.51;100.00
20023;BME280;10172;42.054;24.546;2023-01-28T13:49:46;97982.47;;;4.01;100.00
20023;BME280;10172;42.054;24.546;2023-01-28T13:57:47;97933.94;;;3.32;100.00
20023;BME280;10172;42.054;24.546;2023-01-28T14:17:02;97995.53;;;3.66;100.00
20023;BME280;10172;42.054;24.546;2023-01-28T14:19:35;97968.44;;;3.25;100.00
20023;BME280;10172;42.054;24.546;2023-01-28T14:22:06;97998.09;;;3.67;100.00
20023;BME280;10172;42.054;24.546;2023-01-28T14:24:32;97968.63;;;3.40;100.00
20023;BME280;10172;42.054;24.546;2023-01-28T14:29:48;97909.72;;;2.85;100.00
20023;BME280;10172;42.054;24.546;2023-01-28T14:32:20;97989.88;;;3.93;100.00
20023;BME280;10172;42.054;24.546;2023-01-28T14:34:47;97980.31;;;3.33;100.00
20023;BME280;10172;42.054;24.546;2023-01-28T14:37:16;97986.53;;;3.32;100.00
20023;BME280;10172;42.054;24.546;2023-01-28T14:40:15;97986.94;;;3.42;100.00
20023;BME280;10172;42.054;24.546;2023-01-28T14:42:46;97986.75;;;3.46;100.00
20023;BME280;10172;42.054;24.546;2023-01-28T14:45:24;97928.72;;;2.92;100.00
20023;BME280;10172;42.054;24.546;2023-01-28T14:58:45;98007.56;;;3.32;100.00
20023;BME280;10172;42.054;24.546;2023-01-28T15:01:28;98013.44;;;3.57;100.00
20023;BME280;10172;42.054;24.546;2023-01-28T15:03:54;98010.81;;;3.37;100.00
20023;BME280;10172;42.054;24.546;2023-01-28T15:06:22;97953.69;;;3.41;100.00
20023;BME280;10172;42.054;24.546;2023-01-28T15:08:52;98015.31;;;3.74;100.00
20023;BME280;10172;42.054;24.546;2023-01-28T15:11:25;98018.44;;;3.63;100.00
20023;BME280;10172;42.054;24.546;2023-01-28T15:13:56;98034.31;;;3.81;100.00
20023;BME280;10172;42.054;24.546;2023-01-28T15:16:26;98022.00;;;3.81;100.00
20023;BME280;10172;42.054;24.546;2023-01-28T15:18:58;98020.78;;;4.27;100.00
20023;BME280;10172;42.054;24.546;2023-01-28T15:21:25;98032.13;;;4.65;100.00
20023;BME280;10172;42.054;24.546;2023-01-28T15:23:54;98025.81;;;4.13;100.00